createdAt,value
2023-03-21T00:01:31.418Z,8.8
2023-03-21T00:16:41.395Z,8.8
2023-03-21T00:31:52.173Z,8.7
2023-03-21T00:47:07.301Z,8.7
2023-03-21T01:02:18.670Z,8.8
2023-03-21T01:17:28.869Z,8.8
2023-03-21T01:32:40.491Z,8.8
2023-03-21T01:47:53.255Z,8.8
2023-03-21T02:03:12.744Z,8.8
2023-03-21T02:18:45.958Z,8.8
2023-03-21T02:33:55.816Z,8.9
2023-03-21T02:49:05.607Z,8.9
2023-03-21T03:04:16.142Z,8.9
2023-03-21T03:19:27.381Z,9
2023-03-21T03:34:37.381Z,9
2023-03-21T03:49:47.208Z,9
2023-03-21T04:04:56.819Z,9
2023-03-21T04:20:11.944Z,9
2023-03-21T04:35:47.007Z,9
2023-03-21T04:50:56.964Z,9.1
2023-03-21T05:06:09.254Z,9.1
2023-03-21T05:21:22.152Z,9.1
2023-03-21T05:36:32.117Z,9.2
2023-03-21T05:51:41.771Z,9.2
2023-03-21T06:06:51.454Z,9.3
2023-03-21T06:22:00.936Z,9.3
2023-03-21T06:37:10.389Z,9.3
2023-03-21T06:52:26.178Z,9.4
2023-03-21T07:07:35.842Z,9.5
2023-03-21T07:22:45.522Z,9.6
2023-03-21T07:37:55.348Z,9.8
2023-03-21T07:53:05.239Z,10.1
2023-03-21T08:08:15.224Z,10.2
2023-03-21T08:23:25.276Z,10.3
2023-03-21T08:38:34.991Z,10.3
2023-03-21T08:53:44.591Z,10.5
2023-03-21T09:08:54.567Z,10.7
2023-03-21T09:24:04.320Z,11
2023-03-21T09:39:14.322Z,11.1
2023-03-21T09:54:23.838Z,11
2023-03-21T10:09:33.641Z,11
2023-03-21T10:24:43.447Z,11.1
2023-03-21T10:39:53.555Z,11.2
2023-03-21T10:55:03.249Z,11.2
2023-03-21T11:10:17.109Z,11.1
2023-03-21T11:25:39.308Z,11.1
2023-03-21T11:40:50.745Z,11.1
2023-03-21T11:56:00.854Z,11.1
2023-03-21T12:11:10.138Z,11.2
2023-03-21T12:26:19.750Z,11.3
2023-03-21T12:41:29.141Z,11.3
2023-03-21T12:56:39.200Z,11.4
2023-03-21T13:11:50.070Z,11.3
2023-03-21T13:27:00.973Z,11.3
2023-03-21T13:42:10.591Z,11.3
2023-03-21T13:57:20.715Z,11.1
2023-03-21T14:12:30.772Z,11.1
2023-03-21T14:27:40.749Z,11.1
2023-03-21T14:42:50.927Z,11.1
2023-03-21T14:58:01.128Z,11.2
2023-03-21T15:13:11.869Z,11.2
2023-03-21T15:28:22.043Z,11.2
2023-03-21T15:43:32.243Z,11.2
2023-03-21T15:58:42.466Z,11.3
2023-03-21T16:13:52.461Z,11.3
2023-03-21T16:29:02.805Z,11.3
2023-03-21T16:44:12.812Z,11.2
2023-03-21T16:59:23.182Z,11.2
2023-03-21T17:14:33.513Z,11.2
2023-03-21T17:29:43.572Z,11.2
2023-03-21T17:44:54.062Z,11.2
2023-03-21T18:00:04.187Z,11.2
2023-03-21T18:15:15.195Z,11.1
2023-03-21T18:30:47.569Z,11
2023-03-21T18:46:28.769Z,10.9
2023-03-21T19:01:38.310Z,10.8
2023-03-21T19:17:26.872Z,10.8
2023-03-21T19:34:09.878Z,10.8
2023-03-21T19:49:20.239Z,10.7
2023-03-21T20:05:06.085Z,10.7
2023-03-21T20:20:16.164Z,10.6
2023-03-21T20:36:00.646Z,10.5
2023-03-21T21:08:17.211Z,10.3
2023-03-21T21:23:29.440Z,10.2
2023-03-21T21:38:39.420Z,10.1
2023-03-21T21:53:48.921Z,10
2023-03-21T22:08:58.487Z,10
2023-03-21T22:24:07.879Z,10
2023-03-21T22:39:17.112Z,9.9
2023-03-21T22:54:27.186Z,9.8
2023-03-21T23:09:36.730Z,9.7
2023-03-21T23:24:46.486Z,9.7
2023-03-21T23:39:56.162Z,9.6
2023-03-21T23:55:05.553Z,9.6
